sensor_id;sensor_type;location;lat;lon;timestamp;temperature;humidity
423;DHT22;198;48.752;9.180;2023-12-20T00:01:40;6.80;99.90
423;DHT22;198;48.752;9.180;2023-12-20T00:04:06;6.80;99.90
423;DHT22;198;48.752;9.180;2023-12-20T00:06:31;6.80;99.90
423;DHT22;198;48.752;9.180;2023-12-20T00:08:57;6.70;99.90
423;DHT22;198;48.752;9.180;2023-12-20T00:11:25;6.70;99.90
423;DHT22;198;48.752;9.180;2023-12-20T00:13:51;6.80;99.90
423;DHT22;198;48.752;9.180;2023-12-20T00:16:17;6.80;99.90
423;DHT22;198;48.752;9.180;2023-12-20T00:18:42;6.90;99.90
423;DHT22;198;48.752;9.180;2023-12-20T00:21:08;6.90;99.90
423;DHT22;198;48.752;9.180;2023-12-20T00:23:33;6.90;99.90
423;DHT22;198;48.752;9.180;2023-12-20T00:25:59;6.90;99.90
423;DHT22;198;48.752;9.180;2023-12-20T00:28:24;7.00;99.90
423;DHT22;198;48.752;9.180;2023-12-20T00:30:50;7.00;99.90
423;DHT22;198;48.752;9.180;2023-12-20T00:33:15;6.90;99.90
423;DHT22;198;48.752;9.180;2023-12-20T00:35:41;6.90;99.90
423;DHT22;198;48.752;9.180;2023-12-20T00:38:06;6.70;99.90
423;DHT22;198;48.752;9.180;2023-12-20T00:40:33;6.70;99.90
423;DHT22;198;48.752;9.180;2023-12-20T00:42:59;6.60;99.90
423;DHT22;198;48.752;9.180;2023-12-20T00:45:25;6.60;99.90
423;DHT22;198;48.752;9.180;2023-12-20T00:47:50;6.50;99.90
423;DHT22;198;48.752;9.180;2023-12-20T00:50:16;6.50;99.90
423;DHT22;198;48.752;9.180;2023-12-20T00:52:41;6.50;99.90
423;DHT22;198;48.752;9.180;2023-12-20T00:55:07;6.50;99.90
423;DHT22;198;48.752;9.180;2023-12-20T00:57:33;6.50;99.90
423;DHT22;198;48.752;9.180;2023-12-20T00:59:58;6.40;99.90
423;DHT22;198;48.752;9.180;2023-12-20T01:02:24;6.40;99.90
423;DHT22;198;48.752;9.180;2023-12-20T01:04:49;6.40;99.90
423;DHT22;198;48.752;9.180;2023-12-20T01:07:15;6.30;99.90
423;DHT22;198;48.752;9.180;2023-12-20T01:09:40;6.30;99.90
423;DHT22;198;48.752;9.180;2023-12-20T01:12:06;6.30;99.90
423;DHT22;198;48.752;9.180;2023-12-20T01:14:31;6.30;99.90
423;DHT22;198;48.752;9.180;2023-12-20T01:16:57;6.30;99.90
423;DHT22;198;48.752;9.180;2023-12-20T01:19:22;6.30;99.90
423;DHT22;198;48.752;9.180;2023-12-20T01:21:49;6.30;99.90
423;DHT22;198;48.752;9.180;2023-12-20T01:24:14;6.20;99.90
423;DHT22;198;48.752;9.180;2023-12-20T01:26:40;6.30;99.90
423;DHT22;198;48.752;9.180;2023-12-20T01:29:05;6.30;99.90
423;DHT22;198;48.752;9.180;2023-12-20T01:31:31;6.20;99.90
423;DHT22;198;48.752;9.180;2023-12-20T01:33:56;6.20;99.90
423;DHT22;198;48.752;9.180;2023-12-20T01:36:22;6.20;99.90
423;DHT22;198;48.752;9.180;2023-12-20T01:38:47;6.20;99.90
423;DHT22;198;48.752;9.180;2023-12-20T01:41:13;6.20;99.90
423;DHT22;198;48.752;9.180;2023-12-20T01:43:38;6.20;99.90
423;DHT22;198;48.752;9.180;2023-12-20T01:46:04;6.20;99.90
423;DHT22;198;48.752;9.180;2023-12-20T01:48:30;6.20;99.90
423;DHT22;198;48.752;9.180;2023-12-20T01:50:59;6.20;99.90
423;DHT22;198;48.752;9.180;2023-12-20T01:53:27;6.20;99.90
423;DHT22;198;48.752;9.180;2023-12-20T01:55:54;6.20;99.90
423;DHT22;198;48.752;9.180;2023-12-20T01:58:20;6.20;99.90
423;DHT22;198;48.752;9.180;2023-12-20T02:00:47;6.30;99.90
423;DHT22;198;48.752;9.180;2023-12-20T02:03:13;6.30;99.90
423;DHT22;198;48.752;9.180;2023-12-20T02:05:39;6.20;99.90
423;DHT22;198;48.752;9.180;2023-12-20T02:08:05;6.20;99.90
423;DHT22;198;48.752;9.180;2023-12-20T02:10:31;6.20;99.90
423;DHT22;198;48.752;9.180;2023-12-20T02:12:57;6.30;99.90
423;DHT22;198;48.752;9.180;2023-12-20T02:15:22;6.30;99.90
423;DHT22;198;48.752;9.180;2023-12-20T02:17:48;6.30;99.90
423;DHT22;198;48.752;9.180;2023-12-20T02:20:14;6.30;99.90
423;DHT22;198;48.752;9.180;2023-12-20T02:22:39;6.40;99.90
423;DHT22;198;48.752;9.180;2023-12-20T02:25:05;6.40;99.90
423;DHT22;198;48.752;9.180;2023-12-20T02:27:31;6.40;99.90
423;DHT22;198;48.752;9.180;2023-12-20T02:29:56;6.40;99.90
423;DHT22;198;48.752;9.180;2023-12-20T02:32:22;6.40;99.90
423;DHT22;198;48.752;9.180;2023-12-20T02:34:51;6.50;99.90
423;DHT22;198;48.752;9.180;2023-12-20T02:37:17;6.40;99.90
423;DHT22;198;48.752;9.180;2023-12-20T02:39:42;6.40;99.90
423;DHT22;198;48.752;9.180;2023-12-20T02:42:08;6.50;99.90
423;DHT22;198;48.752;9.180;2023-12-20T02:44:33;6.50;99.90
423;DHT22;198;48.752;9.180;2023-12-20T02:46:59;6.50;99.90
423;DHT22;198;48.752;9.180;2023-12-20T02:49:24;6.50;99.90
423;DHT22;198;48.752;9.180;2023-12-20T02:51:50;6.50;99.90
423;DHT22;198;48.752;9.180;2023-12-20T02:54:15;6.60;99.90
423;DHT22;198;48.752;9.180;2023-12-20T02:56:41;6.50;99.90
423;DHT22;198;48.752;9.180;2023-12-20T02:59:07;6.50;99.90
423;DHT22;198;48.752;9.180;2023-12-20T03:01:34;6.50;99.90
423;DHT22;198;48.752;9.180;2023-12-20T03:03:59;6.60;99.90
423;DHT22;198;48.752;9.180;2023-12-20T03:06:25;6.60;99.90
423;DHT22;198;48.752;9.180;2023-12-20T03:08:51;6.60;99.90
423;DHT22;198;48.752;9.180;2023-12-20T03:11:16;6.60;99.90
423;DHT22;198;48.752;9.180;2023-12-20T03:13:42;6.60;99.90
423;DHT22;198;48.752;9.180;2023-12-20T03:16:11;6.60;99.90
423;DHT22;198;48.752;9.180;2023-12-20T03:18:37;6.60;99.90
423;DHT22;198;48.752;9.180;2023-12-20T03:21:04;6.60;99.90
423;DHT22;198;48.752;9.180;2023-12-20T03:23:30;6.70;99.90
423;DHT22;198;48.752;9.180;2023-12-20T03:25:56;6.60;99.90
423;DHT22;198;48.752;9.180;2023-12-20T03:28:22;6.60;99.90
423;DHT22;198;48.752;9.180;2023-12-20T03:30:48;6.60;99.90
423;DHT22;198;48.752;9.180;2023-12-20T03:33:14;6.60;99.90
423;DHT22;198;48.752;9.180;2023-12-20T03:35:39;6.60;99.90
423;DHT22;198;48.752;9.180;2023-12-20T03:38:05;6.60;99.90
423;DHT22;198;48.752;9.180;2023-12-20T03:40:30;6.60;99.90
423;DHT22;198;48.752;9.180;2023-12-20T03:42:56;6.60;99.90
423;DHT22;198;48.752;9.180;2023-12-20T03:45:21;6.50;99.90
423;DHT22;198;48.752;9.180;2023-12-20T03:47:47;6.50;99.90
423;DHT22;198;48.752;9.180;2023-12-20T03:50:13;6.50;99.90
423;DHT22;198;48.752;9.180;2023-12-20T03:52:38;6.50;99.90
423;DHT22;198;48.752;9.180;2023-12-20T03:55:04;6.40;99.90
423;DHT22;198;48.752;9.180;2023-12-20T03:57:30;6.40;99.90
423;DHT22;198;48.752;9.180;2023-12-20T03:59:55;6.40;99.90
423;DHT22;198;48.752;9.180;2023-12-20T04:02:21;6.30;99.90
423;DHT22;198;48.752;9.180;2023-12-20T04:04:46;6.30;99.90
423;DHT22;198;48.752;9.180;2023-12-20T04:07:12;6.30;99.90
423;DHT22;198;48.752;9.180;2023-12-20T04:09:37;6.30;99.90
423;DHT22;198;48.752;9.180;2023-12-20T04:12:03;6.20;99.90
423;DHT22;198;48.752;9.180;2023-12-20T04:14:29;6.20;99.90
423;DHT22;198;48.752;9.180;2023-12-20T04:16:54;6.20;99.90
423;DHT22;198;48.752;9.180;2023-12-20T04:19:20;6.20;99.90
423;DHT22;198;48.752;9.180;2023-12-20T04:21:45;6.10;99.90
423;DHT22;198;48.752;9.180;2023-12-20T04:24:10;6.10;99.90
423;DHT22;198;48.752;9.180;2023-12-20T04:26:36;6.10;99.90
423;DHT22;198;48.752;9.180;2023-12-20T04:29:02;6.10;99.90
423;DHT22;198;48.752;9.180;2023-12-20T04:31:27;6.10;99.90
423;DHT22;198;48.752;9.180;2023-12-20T04:33:52;6.10;99.90
423;DHT22;198;48.752;9.180;2023-12-20T04:36:18;6.10;99.90
423;DHT22;198;48.752;9.180;2023-12-20T04:38:43;6.10;99.90
423;DHT22;198;48.752;9.180;2023-12-20T04:41:09;6.10;99.90
423;DHT22;198;48.752;9.180;2023-12-20T04:43:34;6.10;99.90
423;DHT22;198;48.752;9.180;2023-12-20T04:46:00;6.00;99.90
423;DHT22;198;48.752;9.180;2023-12-20T04:48:25;6.00;99.90
423;DHT22;198;48.752;9.180;2023-12-20T04:50:51;6.00;99.90
423;DHT22;198;48.752;9.180;2023-12-20T04:53:16;6.00;99.90
423;DHT22;198;48.752;9.180;2023-12-20T04:55:42;6.00;99.90
423;DHT22;198;48.752;9.180;2023-12-20T04:58:07;6.00;99.90
423;DHT22;198;48.752;9.180;2023-12-20T05:00:33;6.10;99.90
423;DHT22;198;48.752;9.180;2023-12-20T05:02:58;6.10;99.90
423;DHT22;198;48.752;9.180;2023-12-20T05:05:24;6.10;99.90
423;DHT22;198;48.752;9.180;2023-12-20T05:07:49;6.10;99.90
423;DHT22;198;48.752;9.180;2023-12-20T05:10:15;6.10;99.90
423;DHT22;198;48.752;9.180;2023-12-20T05:12:40;6.10;99.90
423;DHT22;198;48.752;9.180;2023-12-20T05:15:06;6.00;99.90
423;DHT22;198;48.752;9.180;2023-12-20T05:17:32;6.00;99.90
423;DHT22;198;48.752;9.180;2023-12-20T05:19:57;6.00;99.90
423;DHT22;198;48.752;9.180;2023-12-20T05:22:23;6.00;99.90
423;DHT22;198;48.752;9.180;2023-12-20T05:24:48;5.90;99.90
423;DHT22;198;48.752;9.180;2023-12-20T05:27:14;5.90;99.90
423;DHT22;198;48.752;9.180;2023-12-20T05:29:40;5.90;99.90
423;DHT22;198;48.752;9.180;2023-12-20T05:32:05;5.90;99.90
423;DHT22;198;48.752;9.180;2023-12-20T05:34:31;5.90;99.90
423;DHT22;198;48.752;9.180;2023-12-20T05:36:58;5.90;99.90
423;DHT22;198;48.752;9.180;2023-12-20T05:39:23;5.90;99.90
423;DHT22;198;48.752;9.180;2023-12-20T05:41:49;6.00;99.90
423;DHT22;198;48.752;9.180;2023-12-20T05:44:14;5.90;99.90
423;DHT22;198;48.752;9.180;2023-12-20T05:46:40;5.90;99.90
423;DHT22;198;48.752;9.180;2023-12-20T05:49:06;5.90;99.90
423;DHT22;198;48.752;9.180;2023-12-20T05:51:31;5.90;99.90
423;DHT22;198;48.752;9.180;2023-12-20T05:53:58;5.90;99.90
423;DHT22;198;48.752;9.180;2023-12-20T05:56:24;5.90;99.90
423;DHT22;198;48.752;9.180;2023-12-20T05:58:49;5.90;99.90
423;DHT22;198;48.752;9.180;2023-12-20T06:01:15;5.90;99.90
423;DHT22;198;48.752;9.180;2023-12-20T06:03:44;5.90;99.90
423;DHT22;198;48.752;9.180;2023-12-20T06:06:11;5.90;99.90
423;DHT22;198;48.752;9.180;2023-12-20T06:08:38;5.90;99.90
423;DHT22;198;48.752;9.180;2023-12-20T06:11:03;5.90;99.90
423;DHT22;198;48.752;9.180;2023-12-20T06:13:29;5.90;99.90
423;DHT22;198;48.752;9.180;2023-12-20T06:15:55;5.90;99.90
423;DHT22;198;48.752;9.180;2023-12-20T06:18:21;5.90;99.90
423;DHT22;198;48.752;9.180;2023-12-20T06:20:46;5.90;99.90
423;DHT22;198;48.752;9.180;2023-12-20T06:23:12;5.90;99.90
423;DHT22;198;48.752;9.180;2023-12-20T06:25:37;6.00;99.90
423;DHT22;198;48.752;9.180;2023-12-20T06:28:03;6.00;99.90
423;DHT22;198;48.752;9.180;2023-12-20T06:30:29;6.10;99.90
423;DHT22;198;48.752;9.180;2023-12-20T06:32:54;6.10;99.90
423;DHT22;198;48.752;9.180;2023-12-20T06:35:20;6.10;99.90
423;DHT22;198;48.752;9.180;2023-12-20T06:37:45;6.10;99.90
423;DHT22;198;48.752;9.180;2023-12-20T06:40:11;6.10;99.90
423;DHT22;198;48.752;9.180;2023-12-20T06:42:37;6.00;99.90
423;DHT22;198;48.752;9.180;2023-12-20T06:45:03;6.00;99.90
423;DHT22;198;48.752;9.180;2023-12-20T06:47:29;6.00;99.90
423;DHT22;198;48.752;9.180;2023-12-20T06:49:54;6.10;99.90
423;DHT22;198;48.752;9.180;2023-12-20T06:52:20;6.10;99.90
423;DHT22;198;48.752;9.180;2023-12-20T06:54:45;6.10;99.90
423;DHT22;198;48.752;9.180;2023-12-20T06:57:11;6.10;99.90
423;DHT22;198;48.752;9.180;2023-12-20T06:59:40;6.10;99.90
423;DHT22;198;48.752;9.180;2023-12-20T07:02:06;6.20;99.90
423;DHT22;198;48.752;9.180;2023-12-20T07:04:33;6.20;99.90
423;DHT22;198;48.752;9.180;2023-12-20T07:06:58;6.20;99.90
423;DHT22;198;48.752;9.180;2023-12-20T07:09:26;6.30;99.90
423;DHT22;198;48.752;9.180;2023-12-20T07:11:52;6.30;99.90
423;DHT22;198;48.752;9.180;2023-12-20T07:14:17;6.30;99.90
423;DHT22;198;48.752;9.180;2023-12-20T07:16:43;6.40;99.90
423;DHT22;198;48.752;9.180;2023-12-20T07:19:08;6.40;99.90
423;DHT22;198;48.752;9.180;2023-12-20T07:21:34;6.50;99.90
423;DHT22;198;48.752;9.180;2023-12-20T07:23:59;6.50;99.90
423;DHT22;198;48.752;9.180;2023-12-20T07:26:25;6.60;99.90
423;DHT22;198;48.752;9.180;2023-12-20T07:28:50;6.60;99.90
423;DHT22;198;48.752;9.180;2023-12-20T07:31:16;6.60;99.90
423;DHT22;198;48.752;9.180;2023-12-20T07:33:42;6.60;99.90
423;DHT22;198;48.752;9.180;2023-12-20T07:36:07;6.50;99.90
423;DHT22;198;48.752;9.180;2023-12-20T07:38:33;6.50;99.90
423;DHT22;198;48.752;9.180;2023-12-20T07:40:59;6.50;99.90
423;DHT22;198;48.752;9.180;2023-12-20T07:43:24;6.50;99.90
423;DHT22;198;48.752;9.180;2023-12-20T07:45:50;6.50;99.90
423;DHT22;198;48.752;9.180;2023-12-20T07:48:15;6.50;99.90
423;DHT22;198;48.752;9.180;2023-12-20T07:50:41;6.40;99.90
423;DHT22;198;48.752;9.180;2023-12-20T07:53:07;6.30;99.90
423;DHT22;198;48.752;9.180;2023-12-20T07:55:33;6.30;99.90
423;DHT22;198;48.752;9.180;2023-12-20T07:57:59;6.20;99.90
423;DHT22;198;48.752;9.180;2023-12-20T08:00:25;6.20;99.90
423;DHT22;198;48.752;9.180;2023-12-20T08:02:51;6.20;99.90
423;DHT22;198;48.752;9.180;2023-12-20T08:05:16;6.20;99.90
423;DHT22;198;48.752;9.180;2023-12-20T08:07:42;6.20;99.90
423;DHT22;198;48.752;9.180;2023-12-20T08:10:07;6.20;99.90
423;DHT22;198;48.752;9.180;2023-12-20T08:12:33;6.20;99.90
423;DHT22;198;48.752;9.180;2023-12-20T08:14:59;6.20;99.90
423;DHT22;198;48.752;9.180;2023-12-20T08:17:25;6.20;99.90
423;DHT22;198;48.752;9.180;2023-12-20T08:19:51;6.30;99.90
423;DHT22;198;48.752;9.180;2023-12-20T08:22:16;6.30;99.90
423;DHT22;198;48.752;9.180;2023-12-20T08:24:42;6.40;99.90
423;DHT22;198;48.752;9.180;2023-12-20T08:27:07;6.40;99.90
423;DHT22;198;48.752;9.180;2023-12-20T08:29:34;6.40;99.90
423;DHT22;198;48.752;9.180;2023-12-20T08:32:00;6.40;99.90
423;DHT22;198;48.752;9.180;2023-12-20T08:34:25;6.40;99.90
423;DHT22;198;48.752;9.180;2023-12-20T08:36:51;6.40;99.90
423;DHT22;198;48.752;9.180;2023-12-20T08:39:17;6.40;99.90
423;DHT22;198;48.752;9.180;2023-12-20T08:41:43;6.40;99.90
423;DHT22;198;48.752;9.180;2023-12-20T08:44:09;6.50;99.90
423;DHT22;198;48.752;9.180;2023-12-20T08:46:34;6.50;99.90
423;DHT22;198;48.752;9.180;2023-12-20T08:49:01;6.50;99.90
423;DHT22;198;48.752;9.180;2023-12-20T08:51:26;6.50;99.90
423;DHT22;198;48.752;9.180;2023-12-20T08:53:53;6.60;99.90
423;DHT22;198;48.752;9.180;2023-12-20T08:56:18;6.60;99.90
423;DHT22;198;48.752;9.180;2023-12-20T08:58:46;6.50;99.90
423;DHT22;198;48.752;9.180;2023-12-20T09:01:12;6.40;99.90
423;DHT22;198;48.752;9.180;2023-12-20T09:03:39;6.30;99.90
423;DHT22;198;48.752;9.180;2023-12-20T09:06:05;6.80;99.90
423;DHT22;198;48.752;9.180;2023-12-20T09:08:31;8.40;99.90
423;DHT22;198;48.752;9.180;2023-12-20T09:10:57;9.90;99.90
423;DHT22;198;48.752;9.180;2023-12-20T09:13:22;10.90;99.90
423;DHT22;198;48.752;9.180;2023-12-20T09:15:56;11.50;99.90
423;DHT22;198;48.752;9.180;2023-12-20T09:18:21;13.00;99.90
423;DHT22;198;48.752;9.180;2023-12-20T09:20:47;14.40;92.20
423;DHT22;198;48.752;9.180;2023-12-20T09:23:12;14.80;78.40
423;DHT22;198;48.752;9.180;2023-12-20T09:25:38;15.60;72.50
423;DHT22;198;48.752;9.180;2023-12-20T09:28:04;16.30;64.10
423;DHT22;198;48.752;9.180;2023-12-20T09:30:29;16.80;59.30
423;DHT22;198;48.752;9.180;2023-12-20T09:32:55;17.30;57.10
423;DHT22;198;48.752;9.180;2023-12-20T09:35:21;17.90;52.10
423;DHT22;198;48.752;9.180;2023-12-20T09:37:46;18.40;51.10
423;DHT22;198;48.752;9.180;2023-12-20T09:40:18;18.60;47.70
423;DHT22;198;48.752;9.180;2023-12-20T09:42:56;19.00;46.50
423;DHT22;198;48.752;9.180;2023-12-20T09:45:22;19.70;44.90
423;DHT22;198;48.752;9.180;2023-12-20T09:47:50;20.10;43.90
423;DHT22;198;48.752;9.180;2023-12-20T09:50:20;20.40;42.60
423;DHT22;198;48.752;9.180;2023-12-20T09:52:50;20.80;40.00
423;DHT22;198;48.752;9.180;2023-12-20T09:55:18;21.00;39.20
423;DHT22;198;48.752;9.180;2023-12-20T09:57:44;20.90;39.80
423;DHT22;198;48.752;9.180;2023-12-20T10:00:10;20.40;38.20
423;DHT22;198;48.752;9.180;2023-12-20T10:02:38;20.00;39.20
423;DHT22;198;48.752;9.180;2023-12-20T10:05:08;20.20;38.20
423;DHT22;198;48.752;9.180;2023-12-20T10:07:37;20.30;37.40
423;DHT22;198;48.752;9.180;2023-12-20T10:10:02;20.20;37.30
423;DHT22;198;48.752;9.180;2023-12-20T10:12:29;20.40;36.00
423;DHT22;198;48.752;9.180;2023-12-20T10:14:54;20.00;34.00
423;DHT22;198;48.752;9.180;2023-12-20T10:17:21;18.90;35.60
423;DHT22;198;48.752;9.180;2023-12-20T10:19:47;18.00;36.90
423;DHT22;198;48.752;9.180;2023-12-20T10:22:12;16.80;38.30
423;DHT22;198;48.752;9.180;2023-12-20T10:24:38;15.70;41.30
423;DHT22;198;48.752;9.180;2023-12-20T10:27:06;14.70;42.10
423;DHT22;198;48.752;9.180;2023-12-20T10:29:35;13.70;44.20
423;DHT22;198;48.752;9.180;2023-12-20T10:32:23;12.70;44.90
423;DHT22;198;48.752;9.180;2023-12-20T10:34:52;11.80;47.70
423;DHT22;198;48.752;9.180;2023-12-20T10:37:18;11.10;49.20
423;DHT22;198;48.752;9.180;2023-12-20T10:39:43;10.60;51.00
423;DHT22;198;48.752;9.180;2023-12-20T10:42:11;10.30;52.40
423;DHT22;198;48.752;9.180;2023-12-20T10:44:37;10.10;54.00
423;DHT22;198;48.752;9.180;2023-12-20T10:47:04;9.90;56.40
423;DHT22;198;48.752;9.180;2023-12-20T10:49:30;9.70;57.10
423;DHT22;198;48.752;9.180;2023-12-20T10:51:57;9.50;57.50
423;DHT22;198;48.752;9.180;2023-12-20T10:54:25;9.30;58.50
423;DHT22;198;48.752;9.180;2023-12-20T10:56:52;9.10;60.40
423;DHT22;198;48.752;9.180;2023-12-20T10:59:19;9.10;62.40
423;DHT22;198;48.752;9.180;2023-12-20T11:01:47;9.10;63.50
423;DHT22;198;48.752;9.180;2023-12-20T11:04:18;9.00;64.00
423;DHT22;198;48.752;9.180;2023-12-20T11:06:49;8.80;65.20
423;DHT22;198;48.752;9.180;2023-12-20T11:09:28;8.60;66.90
423;DHT22;198;48.752;9.180;2023-12-20T11:12:34;8.50;67.30
423;DHT22;198;48.752;9.180;2023-12-20T11:15:01;8.60;68.60
423;DHT22;198;48.752;9.180;2023-12-20T11:17:29;8.40;69.80
423;DHT22;198;48.752;9.180;2023-12-20T11:22:21;8.10;71.60
423;DHT22;198;48.752;9.180;2023-12-20T11:24:47;8.00;71.40
423;DHT22;198;48.752;9.180;2023-12-20T11:27:13;7.90;72.60
423;DHT22;198;48.752;9.180;2023-12-20T11:29:39;7.80;74.30
423;DHT22;198;48.752;9.180;2023-12-20T11:34:51;7.80;76.10
423;DHT22;198;48.752;9.180;2023-12-20T11:37:16;7.70;77.50
423;DHT22;198;48.752;9.180;2023-12-20T11:39:43;7.70;79.30
423;DHT22;198;48.752;9.180;2023-12-20T11:42:10;7.60;79.00
423;DHT22;198;48.752;9.180;2023-12-20T11:44:36;7.50;78.40
423;DHT22;198;48.752;9.180;2023-12-20T11:47:03;7.50;80.00
423;DHT22;198;48.752;9.180;2023-12-20T11:49:28;7.50;80.30
423;DHT22;198;48.752;9.180;2023-12-20T11:51:56;7.50;81.80
423;DHT22;198;48.752;9.180;2023-12-20T11:54:22;7.60;82.80
423;DHT22;198;48.752;9.180;2023-12-20T11:56:47;7.60;81.00
423;DHT22;198;48.752;9.180;2023-12-20T11:59:13;7.70;80.60
423;DHT22;198;48.752;9.180;2023-12-20T12:01:39;7.60;81.30
423;DHT22;198;48.752;9.180;2023-12-20T12:04:07;7.60;81.70
423;DHT22;198;48.752;9.180;2023-12-20T12:06:33;7.50;81.40
423;DHT22;198;48.752;9.180;2023-12-20T12:08:59;7.40;82.40
423;DHT22;198;48.752;9.180;2023-12-20T12:11:24;7.50;82.30
423;DHT22;198;48.752;9.180;2023-12-20T12:13:50;7.50;82.00
423;DHT22;198;48.752;9.180;2023-12-20T12:16:20;7.50;82.70
423;DHT22;198;48.752;9.180;2023-12-20T12:18:46;7.60;82.70
423;DHT22;198;48.752;9.180;2023-12-20T12:21:19;7.60;80.30
423;DHT22;198;48.752;9.180;2023-12-20T12:23:46;7.70;80.10
423;DHT22;198;48.752;9.180;2023-12-20T12:26:11;7.80;78.50
423;DHT22;198;48.752;9.180;2023-12-20T12:28:40;7.90;76.70
423;DHT22;198;48.752;9.180;2023-12-20T12:31:05;7.90;75.00
423;DHT22;198;48.752;9.180;2023-12-20T12:33:31;7.90;75.60
423;DHT22;198;48.752;9.180;2023-12-20T12:35:56;8.00;75.40
423;DHT22;198;48.752;9.180;2023-12-20T12:38:23;8.00;76.20
423;DHT22;198;48.752;9.180;2023-12-20T12:40:49;8.10;76.90
423;DHT22;198;48.752;9.180;2023-12-20T12:43:15;8.20;76.70
423;DHT22;198;48.752;9.180;2023-12-20T12:45:40;8.30;74.40
423;DHT22;198;48.752;9.180;2023-12-20T12:48:06;8.50;72.80
423;DHT22;198;48.752;9.180;2023-12-20T12:50:32;9.00;70.40
423;DHT22;198;48.752;9.180;2023-12-20T12:52:57;9.30;69.20
423;DHT22;198;48.752;9.180;2023-12-20T12:55:23;9.20;67.40
423;DHT22;198;48.752;9.180;2023-12-20T12:57:48;8.80;67.90
423;DHT22;198;48.752;9.180;2023-12-20T13:00:14;8.60;68.20
423;DHT22;198;48.752;9.180;2023-12-20T13:02:40;8.40;70.30
423;DHT22;198;48.752;9.180;2023-12-20T13:05:08;8.30;71.40
423;DHT22;198;48.752;9.180;2023-12-20T13:07:34;8.20;72.60
423;DHT22;198;48.752;9.180;2023-12-20T13:10:00;8.30;72.10
423;DHT22;198;48.752;9.180;2023-12-20T13:12:25;8.50;71.90
423;DHT22;198;48.752;9.180;2023-12-20T13:14:51;8.40;72.20
423;DHT22;198;48.752;9.180;2023-12-20T13:17:17;8.30;72.60
423;DHT22;198;48.752;9.180;2023-12-20T13:19:42;8.20;73.00
423;DHT22;198;48.752;9.180;2023-12-20T13:22:08;8.10;74.00
423;DHT22;198;48.752;9.180;2023-12-20T13:24:34;8.00;74.80
423;DHT22;198;48.752;9.180;2023-12-20T13:27:00;8.00;75.80
423;DHT22;198;48.752;9.180;2023-12-20T13:29:25;8.10;76.90
423;DHT22;198;48.752;9.180;2023-12-20T13:31:54;8.50;76.60
423;DHT22;198;48.752;9.180;2023-12-20T13:34:19;10.40;71.70
423;DHT22;198;48.752;9.180;2023-12-20T13:36:45;11.90;64.20
423;DHT22;198;48.752;9.180;2023-12-20T13:39:13;13.90;57.50
423;DHT22;198;48.752;9.180;2023-12-20T13:41:39;15.80;51.70
423;DHT22;198;48.752;9.180;2023-12-20T13:44:05;16.10;48.20
423;DHT22;198;48.752;9.180;2023-12-20T13:46:30;15.20;47.60
423;DHT22;198;48.752;9.180;2023-12-20T13:48:56;14.10;48.30
423;DHT22;198;48.752;9.180;2023-12-20T13:51:22;13.10;48.60
423;DHT22;198;48.752;9.180;2023-12-20T13:53:48;12.20;49.90
423;DHT22;198;48.752;9.180;2023-12-20T13:56:15;11.40;51.70
423;DHT22;198;48.752;9.180;2023-12-20T13:58:40;10.60;53.40
423;DHT22;198;48.752;9.180;2023-12-20T14:01:07;10.10;55.10
423;DHT22;198;48.752;9.180;2023-12-20T14:03:33;9.60;57.50
423;DHT22;198;48.752;9.180;2023-12-20T14:06:00;9.30;59.50
423;DHT22;198;48.752;9.180;2023-12-20T14:08:26;8.90;61.10
423;DHT22;198;48.752;9.180;2023-12-20T14:10:52;8.70;62.30
423;DHT22;198;48.752;9.180;2023-12-20T14:13:18;8.40;63.80
423;DHT22;198;48.752;9.180;2023-12-20T14:15:43;8.20;65.70
423;DHT22;198;48.752;9.180;2023-12-20T14:18:09;8.00;67.90
423;DHT22;198;48.752;9.180;2023-12-20T14:20:35;7.80;69.60
423;DHT22;198;48.752;9.180;2023-12-20T14:23:03;7.70;71.70
423;DHT22;198;48.752;9.180;2023-12-20T14:25:29;7.60;72.60
423;DHT22;198;48.752;9.180;2023-12-20T14:27:54;7.40;73.90
423;DHT22;198;48.752;9.180;2023-12-20T14:30:20;7.30;75.60
423;DHT22;198;48.752;9.180;2023-12-20T14:32:45;7.20;77.00
423;DHT22;198;48.752;9.180;2023-12-20T14:35:13;7.10;78.80
423;DHT22;198;48.752;9.180;2023-12-20T14:37:39;6.90;81.30
423;DHT22;198;48.752;9.180;2023-12-20T14:40:06;6.90;83.80
423;DHT22;198;48.752;9.180;2023-12-20T14:42:35;6.80;85.60
423;DHT22;198;48.752;9.180;2023-12-20T14:45:01;6.70;88.20
423;DHT22;198;48.752;9.180;2023-12-20T14:47:26;6.70;90.20
423;DHT22;198;48.752;9.180;2023-12-20T14:49:52;6.70;90.70
423;DHT22;198;48.752;9.180;2023-12-20T14:52:18;6.60;91.30
423;DHT22;198;48.752;9.180;2023-12-20T14:54:44;6.60;92.40
423;DHT22;198;48.752;9.180;2023-12-20T14:57:10;6.50;93.20
423;DHT22;198;48.752;9.180;2023-12-20T14:59:35;6.40;94.40
423;DHT22;198;48.752;9.180;2023-12-20T15:02:01;6.40;95.70
423;DHT22;198;48.752;9.180;2023-12-20T15:04:33;6.40;96.90
423;DHT22;198;48.752;9.180;2023-12-20T15:06:58;6.30;97.10
423;DHT22;198;48.752;9.180;2023-12-20T15:09:25;6.30;97.80
423;DHT22;198;48.752;9.180;2023-12-20T15:11:52;6.30;98.40
423;DHT22;198;48.752;9.180;2023-12-20T15:14:17;6.30;99.20
423;DHT22;198;48.752;9.180;2023-12-20T15:16:45;6.20;99.90
423;DHT22;198;48.752;9.180;2023-12-20T15:19:14;6.20;99.90
423;DHT22;198;48.752;9.180;2023-12-20T15:21:40;6.10;99.90
423;DHT22;198;48.752;9.180;2023-12-20T15:24:08;6.10;99.90
423;DHT22;198;48.752;9.180;2023-12-20T15:26:41;6.00;99.90
423;DHT22;198;48.752;9.180;2023-12-20T15:29:07;5.90;99.90
423;DHT22;198;48.752;9.180;2023-12-20T15:31:32;5.90;99.90
423;DHT22;198;48.752;9.180;2023-12-20T15:33:59;5.90;99.90
423;DHT22;198;48.752;9.180;2023-12-20T15:36:24;5.90;99.90
423;DHT22;198;48.752;9.180;2023-12-20T15:38:51;5.90;99.90
423;DHT22;198;48.752;9.180;2023-12-20T15:41:21;5.80;99.90
423;DHT22;198;48.752;9.180;2023-12-20T15:43:46;5.80;99.90
423;DHT22;198;48.752;9.180;2023-12-20T15:46:12;5.80;99.90
423;DHT22;198;48.752;9.180;2023-12-20T15:48:38;5.80;99.90
423;DHT22;198;48.752;9.180;2023-12-20T15:51:07;5.80;99.90
423;DHT22;198;48.752;9.180;2023-12-20T15:53:32;5.70;99.90
423;DHT22;198;48.752;9.180;2023-12-20T15:55:58;5.60;99.90
423;DHT22;198;48.752;9.180;2023-12-20T15:58:24;5.60;99.90
423;DHT22;198;48.752;9.180;2023-12-20T16:00:50;5.70;99.90
423;DHT22;198;48.752;9.180;2023-12-20T16:03:15;5.60;99.90
423;DHT22;198;48.752;9.180;2023-12-20T16:05:41;5.60;99.90
423;DHT22;198;48.752;9.180;2023-12-20T16:08:06;5.60;99.90
423;DHT22;198;48.752;9.180;2023-12-20T16:10:32;5.60;99.90
423;DHT22;198;48.752;9.180;2023-12-20T16:12:58;5.60;99.90
423;DHT22;198;48.752;9.180;2023-12-20T16:15:23;5.60;99.90
423;DHT22;198;48.752;9.180;2023-12-20T16:17:48;5.50;99.90
423;DHT22;198;48.752;9.180;2023-12-20T16:20:14;5.50;99.90
423;DHT22;198;48.752;9.180;2023-12-20T16:22:40;5.50;99.90
423;DHT22;198;48.752;9.180;2023-12-20T16:25:06;5.50;99.90
423;DHT22;198;48.752;9.180;2023-12-20T16:27:32;5.50;99.90
423;DHT22;198;48.752;9.180;2023-12-20T16:29:59;5.50;99.90
423;DHT22;198;48.752;9.180;2023-12-20T16:32:25;5.50;99.90
423;DHT22;198;48.752;9.180;2023-12-20T16:34:50;5.50;99.90
423;DHT22;198;48.752;9.180;2023-12-20T16:37:16;5.50;99.90
423;DHT22;198;48.752;9.180;2023-12-20T16:39:42;5.40;99.90
423;DHT22;198;48.752;9.180;2023-12-20T16:42:07;5.40;99.90
423;DHT22;198;48.752;9.180;2023-12-20T16:44:33;5.40;99.90
423;DHT22;198;48.752;9.180;2023-12-20T16:46:59;5.40;99.90